ADDS METAR Data INFO
IDs: Format: Raw Decoded Include TAF

Data at: 1605 UTC 12 Dec 2017

KCPW 121544Z AUTO 30003KT 10SM CLR 01/M17 A3068 RMK AO2
KCPW 121532Z AUTO 31003KT 10SM CLR 00/M17 A3067 RMK AO2
KCPW 121510Z AUTO 32005KT 10SM CLR 00/M16 A3067 RMK AO2
KCPW 121450Z AUTO 32006KT 10SM CLR 00/M16 A3067 RMK AO2
KCPW 121429Z AUTO 32005KT 10SM CLR 00/M15 A3067 RMK AO2
KCPW 121407Z AUTO 32005KT 10SM CLR 00/M16 A3067 RMK AO2
KCPW 121349Z AUTO 31004KT 10SM CLR 00/M18 A3067 RMK AO2
KCPW 121329Z AUTO 28004KT 10SM CLR 00/M19 A3067 RMK AO2
KCPW 121310Z AUTO 29003KT 10SM CLR 00/M20 A3067 RMK AO2
KCPW 121252Z AUTO 25008KT 10SM CLR 00/M21 A3067 RMK AO2
KCPW 121232Z AUTO 24007KT 10SM CLR 00/M21 A3067 RMK AO2
KCPW 121213Z AUTO 25007KT 10SM CLR M01/M21 A3067 RMK AO2
KCPW 121149Z AUTO 24008KT 10SM CLR M01/M20 A3067 RMK AO2
KCPW 121130Z AUTO 25008KT 10SM CLR M01/M20 A3067 RMK AO2
KCPW 121109Z AUTO 25008KT 10SM CLR M01/M21 A3067 RMK AO2
KCPW 121049Z AUTO 25008KT 10SM CLR 00/M22 A3067 RMK AO2
KCPW 121033Z AUTO 24009KT 10SM SCT110 M01/M22 A3067 RMK AO2
KCPW 121013Z AUTO 24009KT 10SM CLR M01/M22 A3068 RMK AO2
KCPW 120949Z AUTO 23008KT 10SM CLR 00/M23 A3067 RMK AO2
KCPW 120927Z AUTO 24007KT 10SM CLR 00/M23 A3068 RMK AO2
KCPW 120905Z AUTO 23008KT 10SM SCT110 00/M23 A3068 RMK AO2
KCPW 120850Z AUTO 22008KT 10SM CLR 00/M23 A3067 RMK AO2
KCPW 120831Z AUTO 23008KT 10SM SCT100 00/M23 A3067 RMK AO2
KCPW 120812Z AUTO 23007KT 10SM SCT100 00/M23 A3067 RMK AO2
KCPW 120746Z AUTO 23005KT 10SM SCT110 00/M23 A3067 RMK AO2
KCPW 120732Z AUTO 23004KT 10SM SCT110 00/M24 A3067 RMK AO2
KCPW 120713Z AUTO 00000KT 10SM SCT110 00/M23 A3067 RMK AO2
KCPW 120646Z AUTO 00000KT 10SM CLR 00/M22 A3067 RMK AO2
KCPW 120633Z AUTO 00000KT 10SM CLR M01/M22 A3067 RMK AO2
KCPW 120613Z AUTO 02003KT 10SM CLR M01/M22 A3067 RMK AO2
KCPW 120550Z AUTO 35005KT 10SM CLR M01/M22 A3067 RMK AO2
KCPW 120529Z AUTO 33004KT 10SM CLR M01/M23 A3066 RMK AO2
KCPW 120508Z AUTO 36006KT 10SM CLR M01/M22 A3067 RMK AO2
KCPW 120448Z AUTO 01005KT 10SM CLR M01/M22 A3066 RMK AO2
KCPW 120430Z AUTO 35007KT 10SM CLR M01/M22 A3065 RMK AO2
KCPW 120410Z AUTO 35008KT 10SM CLR M01/M22 A3065 RMK AO2
KCPW 120352Z AUTO 36008KT 10SM CLR M01/M22 A3065 RMK AO2
KCPW 120332Z AUTO 35007KT 10SM CLR M01/M23 A3065 RMK AO2
KCPW 120311Z AUTO 36007KT 10SM CLR M01/M23 A3064 RMK AO2
KCPW 120249Z AUTO 36006KT 10SM CLR 00/M23 A3065 RMK AO2
KCPW 120231Z AUTO 36008KT 10SM SCT110 00/M23 A3064 RMK AO2
KCPW 120211Z AUTO 02006KT 10SM SCT110 M01/M22 A3064 RMK AO2
KCPW 120147Z AUTO 34004KT 10SM SCT110 00/M23 A3063 RMK AO2
KCPW 120130Z AUTO 33005KT 10SM SCT110 00/M23 A3063 RMK AO2
KCPW 120106Z AUTO 33005KT 10SM CLR 00/M23 A3063 RMK AO2
KCPW 120051Z AUTO 32008KT 10SM CLR 00/M23 A3062 RMK AO2
KCPW 120031Z AUTO 32005KT 10SM CLR 00/M23 A3062 RMK AO2
KCPW 120012Z AUTO 30004KT 10SM CLR 01/M22 A3062 RMK AO2
KCPW 112348Z AUTO 30003KT 10SM CLR 02/M22 A3062 RMK AO2
KCPW 112329Z AUTO 29004KT 10SM CLR 02/M22 A3062 RMK AO2
KCPW 112301Z AUTO 29004KT 10SM CLR 03/M21 A3062 RMK AO2
KCPW 112248Z AUTO 29004KT 10SM CLR 03/M21 A3062 RMK AO2
KCPW 112229Z AUTO 30003KT 10SM CLR 03/M20 A3062 RMK AO2
KCPW 112213Z AUTO 29004KT 10SM CLR 03/M21 A3061 RMK AO2
KCPW 112150Z AUTO 30004KT 10SM CLR 03/M21 A3061 RMK AO2
KCPW 112131Z AUTO 31003KT 10SM CLR 04/M21 A3061 RMK AO2
KCPW 112109Z AUTO 00000KT 10SM CLR 03/M20 A3061 RMK AO2
KCPW 112049Z AUTO 00000KT 10SM CLR 03/M20 A3062 RMK AO2
KCPW 112032Z AUTO 00000KT 10SM CLR 03/M19 A3062 RMK AO2
KCPW 112011Z AUTO 28003KT 10SM CLR 03/M20 A3062 RMK AO2
KCPW 111952Z AUTO 32004KT 10SM CLR 03/M20 A3062 RMK AO2
KCPW 111929Z AUTO 32005KT 10SM CLR 03/M20 A3063 RMK AO2
KCPW 111912Z AUTO 32003KT 10SM CLR 02/M20 A3064 RMK AO2
KCPW 111852Z AUTO 26004KT 10SM CLR 02/M18 A3065 RMK AO2
KCPW 111827Z AUTO 31003KT 10SM CLR 01/M18 A3065 RMK AO2
KCPW 111811Z AUTO 32004KT 10SM CLR 01/M18 A3066 RMK AO2
KCPW 111748Z AUTO 33005KT 10SM CLR 00/M17 A3067 RMK AO2
KCPW 111731Z AUTO 33004KT 10SM CLR 00/M18 A3067 RMK AO2
KCPW 111705Z AUTO 34008KT 10SM CLR 00/M18 A3067 RMK AO2
KCPW 111646Z AUTO 34006G16KT 10SM CLR 00/M18 A3066 RMK AO2
KCPW 111621Z AUTO 33008KT 10SM CLR 00/M17 A3065 RMK AO2
KCPW 111607Z AUTO 33006KT 10SM CLR M01/M19 A3065 RMK AO2
KCPW 111553Z AUTO 32005KT 10SM CLR M01/M20 A3065 RMK AO2
KCPW 111527Z AUTO 33005KT 10SM CLR M01/M22 A3065 RMK AO2
KCPW 111508Z AUTO 33006KT 10SM CLR M01/M23 A3065 RMK AO2
KCPW 111447Z AUTO 33006KT 10SM CLR M02/M23 A3065 RMK AO2
KCPW 111433Z AUTO 32006KT 10SM CLR M02/M23 A3065 RMK AO2
KCPW 111409Z AUTO 32005KT 10SM CLR M02/M25 A3065 RMK AO2
KCPW 111353Z AUTO 32007KT 10SM CLR M02/M25 A3065 RMK AO2
KCPW 111329Z AUTO 32007KT 10SM CLR M02/M25 A3064 RMK AO2
KCPW 111310Z AUTO 33006KT 10SM CLR M02/M24 A3063 RMK AO2
KCPW 111253Z AUTO 32008KT 10SM CLR M02/M24 A3063 RMK AO2
KCPW 111233Z AUTO 32006KT 10SM CLR M02/M23 A3063 RMK AO2
KCPW 111207Z AUTO 32006KT 10SM CLR M02/M23 A3062 RMK AO2
KCPW 111152Z AUTO 32006KT 10SM CLR M02/M23 A3062 RMK AO2
KCPW 111133Z AUTO 32006KT 10SM CLR M02/M23 A3063 RMK AO2
KCPW 111112Z AUTO 33005KT 10SM CLR M02/M23 A3063 RMK AO2
KCPW 111048Z AUTO 32004KT 10SM CLR M02/M23 A3063 RMK AO2
KCPW 111031Z AUTO 00000KT 10SM CLR M02/M23 A3063 RMK AO2
KCPW 111012Z AUTO 00000KT 10SM CLR M02/M23 A3063 RMK AO2
KCPW 110949Z AUTO 35007KT 10SM CLR M02/M23 A3063 RMK AO2
KCPW 110929Z AUTO 34009KT 10SM CLR M02/M24 A3064 RMK AO2
KCPW 110913Z AUTO 35009KT 10SM CLR M03/M26 A3065 RMK AO2
KCPW 110850Z AUTO 33005KT 10SM CLR M02/M23 A3064 RMK AO2
KCPW 110832Z AUTO 35008KT 10SM CLR M03/M26 A3064 RMK AO2
KCPW 110813Z AUTO 35006KT 10SM CLR M02/M26 A3065 RMK AO2
KCPW 110749Z AUTO 33007KT 10SM CLR M02/M23 A3065 RMK AO2
KCPW 110729Z AUTO 33005KT 10SM CLR M02/M23 A3065 RMK AO2
KCPW 110713Z AUTO 33004KT 10SM CLR M01/M22 A3065 RMK AO2
KCPW 110647Z AUTO 33003KT 10SM CLR M01/M24 A3065 RMK AO2
KCPW 110632Z AUTO 32004KT 10SM CLR M01/M22 A3066 RMK AO2
KCPW 110606Z AUTO 31004KT 10SM CLR M01/M23 A3065 RMK AO2
KCPW 110550Z AUTO 30003KT 10SM CLR M01/M25 A3065 RMK AO2
KCPW 110528Z AUTO 31004KT 10SM CLR M01/M26 A3065 RMK AO2
KCPW 110509Z AUTO 32004KT 10SM CLR M01/M26 A3065 RMK AO2
KCPW 110450Z AUTO 32005KT 10SM CLR M01/M28 A3065 RMK AO2
KCPW 110431Z AUTO 32005KT 10SM CLR M01/M30 A3065 RMK AO2
KCPW 110411Z AUTO 32005KT 10SM CLR M02/M30 A3065 RMK AO2